sensor_id;sensor_type;location;lat;lon;timestamp;pressure;altitude;pressure_sealevel;temperature;humidity
64139;BME280;50435;43.700;-79.318;2023-09-08T00:00:42;99430.68;;;19.85;83.41
64139;BME280;50435;43.700;-79.318;2023-09-08T00:03:09;99441.30;;;20.50;83.64
64139;BME280;50435;43.700;-79.318;2023-09-08T00:05:36;99458.44;;;20.72;83.85
64139;BME280;50435;43.700;-79.318;2023-09-08T00:08:05;99461.08;;;20.67;84.12
64139;BME280;50435;43.700;-79.318;2023-09-08T00:10:32;99469.76;;;20.85;84.42
64139;BME280;50435;43.700;-79.318;2023-09-08T00:13:00;99479.58;;;20.76;84.60
64139;BME280;50435;43.700;-79.318;2023-09-08T00:15:27;99485.41;;;20.66;84.86
64139;BME280;50435;43.700;-79.318;2023-09-08T00:17:55;99493.89;;;20.34;85.04
64139;BME280;50435;43.700;-79.318;2023-09-08T00:20:22;99497.54;;;20.48;85.15
64139;BME280;50435;43.700;-79.318;2023-09-08T00:22:50;99495.64;;;20.45;85.12
64139;BME280;50435;43.700;-79.318;2023-09-08T00:25:17;99497.09;;;20.18;85.02
64139;BME280;50435;43.700;-79.318;2023-09-08T00:27:44;99505.46;;;19.86;85.05
64139;BME280;50435;43.700;-79.318;2023-09-08T00:30:12;99509.77;;;20.02;85.12
64139;BME280;50435;43.700;-79.318;2023-09-08T00:32:39;99524.70;;;19.69;84.99
64139;BME280;50435;43.700;-79.318;2023-09-08T00:35:10;99533.30;;;20.12;84.89
64139;BME280;50435;43.700;-79.318;2023-09-08T00:37:37;99541.64;;;20.01;85.03
64139;BME280;50435;43.700;-79.318;2023-09-08T00:40:07;99542.15;;;19.97;84.96
64139;BME280;50435;43.700;-79.318;2023-09-08T00:42:35;99542.64;;;19.86;84.96
64139;BME280;50435;43.700;-79.318;2023-09-08T00:45:03;99541.35;;;19.80;84.94
64139;BME280;50435;43.700;-79.318;2023-09-08T00:47:30;99545.46;;;20.24;84.89
64139;BME280;50435;43.700;-79.318;2023-09-08T00:49:57;99547.19;;;19.69;84.86
64139;BME280;50435;43.700;-79.318;2023-09-08T00:52:25;99555.22;;;19.90;84.82
64139;BME280;50435;43.700;-79.318;2023-09-08T00:54:52;99553.22;;;19.56;84.71
64139;BME280;50435;43.700;-79.318;2023-09-08T00:57:19;99553.11;;;19.75;84.80
64139;BME280;50435;43.700;-79.318;2023-09-08T00:59:47;99555.10;;;19.41;84.73
64139;BME280;50435;43.700;-79.318;2023-09-08T01:02:14;99564.76;;;19.87;84.53
64139;BME280;50435;43.700;-79.318;2023-09-08T01:04:41;99568.91;;;18.85;84.56
64139;BME280;50435;43.700;-79.318;2023-09-08T01:07:09;99579.04;;;19.76;84.69
64139;BME280;50435;43.700;-79.318;2023-09-08T01:09:37;99579.83;;;19.70;84.69
64139;BME280;50435;43.700;-79.318;2023-09-08T01:12:05;99584.51;;;19.43;84.56
64139;BME280;50435;43.700;-79.318;2023-09-08T01:14:33;99583.59;;;19.58;84.69
64139;BME280;50435;43.700;-79.318;2023-09-08T01:17:01;99582.61;;;19.32;84.59
64139;BME280;50435;43.700;-79.318;2023-09-08T01:19:28;99581.64;;;19.50;84.64
64139;BME280;50435;43.700;-79.318;2023-09-08T01:22:11;99585.53;;;19.26;84.52
64139;BME280;50435;43.700;-79.318;2023-09-08T01:25:01;99587.70;;;19.38;84.73
64139;BME280;50435;43.700;-79.318;2023-09-08T01:27:32;99592.22;;;19.09;84.69
64139;BME280;50435;43.700;-79.318;2023-09-08T01:30:02;99591.49;;;19.25;84.72
64139;BME280;50435;43.700;-79.318;2023-09-08T01:32:29;99593.25;;;18.94;84.84
64139;BME280;50435;43.700;-79.318;2023-09-08T01:34:58;99601.60;;;19.10;84.59
64139;BME280;50435;43.700;-79.318;2023-09-08T01:37:26;99599.12;;;19.05;84.69
64139;BME280;50435;43.700;-79.318;2023-09-08T01:39:54;99606.50;;;18.77;84.59
64139;BME280;50435;43.700;-79.318;2023-09-08T01:42:22;99608.12;;;18.92;84.55
64139;BME280;50435;43.700;-79.318;2023-09-08T01:44:50;99601.35;;;18.85;84.49
64139;BME280;50435;43.700;-79.318;2023-09-08T01:47:18;99599.57;;;19.30;84.41
64139;BME280;50435;43.700;-79.318;2023-09-08T01:49:46;99603.85;;;18.72;84.52
64139;BME280;50435;43.700;-79.318;2023-09-08T01:52:13;99607.35;;;18.92;84.38
64139;BME280;50435;43.700;-79.318;2023-09-08T01:54:41;99609.92;;;18.14;84.37
64139;BME280;50435;43.700;-79.318;2023-09-08T01:57:08;99612.02;;;18.80;84.40
64139;BME280;50435;43.700;-79.318;2023-09-08T01:59:35;99616.34;;;18.77;84.26
64139;BME280;50435;43.700;-79.318;2023-09-08T02:02:03;99620.50;;;18.71;84.24
64139;BME280;50435;43.700;-79.318;2023-09-08T02:04:30;99625.17;;;18.65;84.31
64139;BME280;50435;43.700;-79.318;2023-09-08T02:06:58;99632.87;;;18.36;84.38
64139;BME280;50435;43.700;-79.318;2023-09-08T02:09:31;99635.21;;;18.53;84.41
64139;BME280;50435;43.700;-79.318;2023-09-08T02:11:58;99638.41;;;18.47;84.52
64139;BME280;50435;43.700;-79.318;2023-09-08T02:14:25;99639.93;;;18.41;84.62
64139;BME280;50435;43.700;-79.318;2023-09-08T02:16:53;99639.84;;;18.35;84.61
64139;BME280;50435;43.700;-79.318;2023-09-08T02:19:20;99641.69;;;18.55;84.73
64139;BME280;50435;43.700;-79.318;2023-09-08T02:21:48;99641.32;;;18.23;84.84
64139;BME280;50435;43.700;-79.318;2023-09-08T02:24:15;99636.76;;;18.20;84.71
64139;BME280;50435;43.700;-79.318;2023-09-08T02:26:43;99631.49;;;17.42;84.78
64139;BME280;50435;43.700;-79.318;2023-09-08T02:29:10;99636.07;;;18.08;84.64
64139;BME280;50435;43.700;-79.318;2023-09-08T02:31:38;99637.65;;;18.30;84.66
64139;BME280;50435;43.700;-79.318;2023-09-08T02:34:05;99642.41;;;18.27;84.53
64139;BME280;50435;43.700;-79.318;2023-09-08T02:36:33;99646.12;;;18.22;84.71
64139;BME280;50435;43.700;-79.318;2023-09-08T02:39:00;99641.76;;;18.19;84.66
64139;BME280;50435;43.700;-79.318;2023-09-08T02:41:28;99651.86;;;18.14;84.82
64139;BME280;50435;43.700;-79.318;2023-09-08T02:43:55;99654.19;;;18.09;84.78
64139;BME280;50435;43.700;-79.318;2023-09-08T02:46:22;99656.89;;;18.06;84.93
64139;BME280;50435;43.700;-79.318;2023-09-08T02:48:51;99658.25;;;18.02;84.95
64139;BME280;50435;43.700;-79.318;2023-09-08T02:51:19;99659.99;;;17.99;84.99
64139;BME280;50435;43.700;-79.318;2023-09-08T02:53:46;99661.77;;;17.47;85.12
64139;BME280;50435;43.700;-79.318;2023-09-08T02:56:14;99655.94;;;17.88;85.17
64139;BME280;50435;43.700;-79.318;2023-09-08T02:58:41;99655.30;;;17.30;85.23
64139;BME280;50435;43.700;-79.318;2023-09-08T03:01:11;99656.15;;;17.77;85.15
64139;BME280;50435;43.700;-79.318;2023-09-08T03:03:40;99661.94;;;17.75;85.07
64139;BME280;50435;43.700;-79.318;2023-09-08T03:06:08;99664.97;;;17.68;85.23
64139;BME280;50435;43.700;-79.318;2023-09-08T03:08:36;99668.62;;;17.62;85.21
64139;BME280;50435;43.700;-79.318;2023-09-08T03:11:04;99664.13;;;17.61;84.97
64139;BME280;50435;43.700;-79.318;2023-09-08T03:13:32;99658.92;;;17.59;85.09
64139;BME280;50435;43.700;-79.318;2023-09-08T03:16:03;99658.24;;;17.77;85.19
64139;BME280;50435;43.700;-79.318;2023-09-08T03:18:30;99660.88;;;17.74;85.05
64139;BME280;50435;43.700;-79.318;2023-09-08T03:20:58;99661.83;;;17.47;85.14
64139;BME280;50435;43.700;-79.318;2023-09-08T03:23:25;99661.42;;;17.92;85.08
64139;BME280;50435;43.700;-79.318;2023-09-08T03:25:52;99660.44;;;17.43;84.98
64139;BME280;50435;43.700;-79.318;2023-09-08T03:28:20;99662.35;;;17.61;85.03
64139;BME280;50435;43.700;-79.318;2023-09-08T03:30:48;99660.79;;;17.34;85.02
64139;BME280;50435;43.700;-79.318;2023-09-08T03:33:15;99657.53;;;17.32;84.92
64139;BME280;50435;43.700;-79.318;2023-09-08T03:35:43;99656.45;;;16.79;84.92
64139;BME280;50435;43.700;-79.318;2023-09-08T03:38:10;99656.89;;;17.75;84.99
64139;BME280;50435;43.700;-79.318;2023-09-08T03:40:38;99654.64;;;17.45;84.91
64139;BME280;50435;43.700;-79.318;2023-09-08T03:43:05;99656.47;;;17.17;85.00
64139;BME280;50435;43.700;-79.318;2023-09-08T03:45:33;99658.54;;;17.32;84.95
64139;BME280;50435;43.700;-79.318;2023-09-08T03:48:00;99659.93;;;17.08;84.90
64139;BME280;50435;43.700;-79.318;2023-09-08T03:50:29;99660.82;;;17.28;84.92
64139;BME280;50435;43.700;-79.318;2023-09-08T03:52:57;99666.40;;;17.26;84.94
64139;BME280;50435;43.700;-79.318;2023-09-08T03:55:24;99672.84;;;17.21;85.06
64139;BME280;50435;43.700;-79.318;2023-09-08T03:57:52;99667.49;;;17.45;85.05
64139;BME280;50435;43.700;-79.318;2023-09-08T04:00:20;99670.25;;;17.40;85.07
64139;BME280;50435;43.700;-79.318;2023-09-08T04:02:47;99672.79;;;16.88;84.96
64139;BME280;50435;43.700;-79.318;2023-09-08T04:05:15;99675.79;;;17.34;84.90
64139;BME280;50435;43.700;-79.318;2023-09-08T04:07:42;99679.53;;;16.34;84.93
64139;BME280;50435;43.700;-79.318;2023-09-08T04:10:10;99676.10;;;17.01;84.90
64139;BME280;50435;43.700;-79.318;2023-09-08T04:12:38;99679.13;;;17.00;84.76
64139;BME280;50435;43.700;-79.318;2023-09-08T04:15:06;99684.10;;;16.95;84.87
64139;BME280;50435;43.700;-79.318;2023-09-08T04:17:34;99682.24;;;17.20;84.74
64139;BME280;50435;43.700;-79.318;2023-09-08T04:20:02;99683.94;;;17.19;84.85
64139;BME280;50435;43.700;-79.318;2023-09-08T04:22:29;99687.18;;;17.15;85.00
64139;BME280;50435;43.700;-79.318;2023-09-08T04:24:56;99687.10;;;16.85;84.82
64139;BME280;50435;43.700;-79.318;2023-09-08T04:27:24;99689.38;;;17.08;84.93
64139;BME280;50435;43.700;-79.318;2023-09-08T04:29:51;99690.07;;;16.78;84.94
64139;BME280;50435;43.700;-79.318;2023-09-08T04:32:19;99687.96;;;16.99;84.64
64139;BME280;50435;43.700;-79.318;2023-09-08T04:34:46;99683.44;;;16.47;84.84
64139;BME280;50435;43.700;-79.318;2023-09-08T04:37:14;99687.37;;;17.15;84.80
64139;BME280;50435;43.700;-79.318;2023-09-08T04:39:41;99698.15;;;16.15;84.72
64139;BME280;50435;43.700;-79.318;2023-09-08T04:42:10;99700.87;;;17.13;84.81
64139;BME280;50435;43.700;-79.318;2023-09-08T04:44:37;99697.98;;;16.88;84.94
64139;BME280;50435;43.700;-79.318;2023-09-08T04:47:05;99694.61;;;16.86;85.00
64139;BME280;50435;43.700;-79.318;2023-09-08T04:49:32;99698.46;;;16.82;84.96
64139;BME280;50435;43.700;-79.318;2023-09-08T04:52:00;99695.77;;;16.80;84.94
64139;BME280;50435;43.700;-79.318;2023-09-08T04:54:27;99705.12;;;16.98;85.08
64139;BME280;50435;43.700;-79.318;2023-09-08T04:56:55;99704.15;;;16.74;84.89
64139;BME280;50435;43.700;-79.318;2023-09-08T04:59:23;99702.70;;;16.71;84.89
64139;BME280;50435;43.700;-79.318;2023-09-08T05:01:50;99707.02;;;16.42;84.81
64139;BME280;50435;43.700;-79.318;2023-09-08T05:04:18;99708.46;;;16.66;84.74
64139;BME280;50435;43.700;-79.318;2023-09-08T05:06:46;99708.22;;;16.15;84.82
64139;BME280;50435;43.700;-79.318;2023-09-08T05:09:13;99713.45;;;16.61;84.94
64139;BME280;50435;43.700;-79.318;2023-09-08T05:11:41;99716.36;;;16.11;85.06
64139;BME280;50435;43.700;-79.318;2023-09-08T05:14:08;99719.70;;;16.60;85.04
64139;BME280;50435;43.700;-79.318;2023-09-08T05:16:36;99722.92;;;16.59;85.13
64139;BME280;50435;43.700;-79.318;2023-09-08T05:19:04;99723.55;;;16.57;85.10
64139;BME280;50435;43.700;-79.318;2023-09-08T05:21:32;99727.97;;;16.78;85.19
64139;BME280;50435;43.700;-79.318;2023-09-08T05:23:59;99728.56;;;16.54;85.15
64139;BME280;50435;43.700;-79.318;2023-09-08T05:26:27;99732.28;;;16.50;85.16
64139;BME280;50435;43.700;-79.318;2023-09-08T05:28:54;99732.25;;;16.23;85.20
64139;BME280;50435;43.700;-79.318;2023-09-08T05:31:22;99734.69;;;16.47;85.31
64139;BME280;50435;43.700;-79.318;2023-09-08T05:33:50;99739.57;;;16.44;85.34
64139;BME280;50435;43.700;-79.318;2023-09-08T05:36:17;99738.21;;;16.42;85.31
64139;BME280;50435;43.700;-79.318;2023-09-08T05:38:45;99739.59;;;15.92;85.35
64139;BME280;50435;43.700;-79.318;2023-09-08T05:41:12;99739.53;;;16.40;85.25
64139;BME280;50435;43.700;-79.318;2023-09-08T05:43:40;99743.15;;;16.34;85.41
64139;BME280;50435;43.700;-79.318;2023-09-08T05:46:07;99742.88;;;16.55;85.27
64139;BME280;50435;43.700;-79.318;2023-09-08T05:48:35;99746.16;;;16.54;85.43
64139;BME280;50435;43.700;-79.318;2023-09-08T05:51:02;99746.88;;;16.51;85.55
64139;BME280;50435;43.700;-79.318;2023-09-08T05:53:30;99748.62;;;16.26;85.31
64139;BME280;50435;43.700;-79.318;2023-09-08T05:55:57;99747.44;;;16.24;85.38
64139;BME280;50435;43.700;-79.318;2023-09-08T05:58:25;99746.40;;;16.67;85.32
64139;BME280;50435;43.700;-79.318;2023-09-08T06:00:52;99744.16;;;16.21;85.42
64139;BME280;50435;43.700;-79.318;2023-09-08T06:03:20;99739.62;;;16.20;85.41
64139;BME280;50435;43.700;-79.318;2023-09-08T06:05:48;99741.16;;;16.19;85.50
64139;BME280;50435;43.700;-79.318;2023-09-08T06:08:15;99740.63;;;16.20;85.45
64139;BME280;50435;43.700;-79.318;2023-09-08T06:10:42;99744.73;;;15.66;85.59
64139;BME280;50435;43.700;-79.318;2023-09-08T06:13:10;99741.76;;;16.58;85.73
64139;BME280;50435;43.700;-79.318;2023-09-08T06:15:37;99741.71;;;16.35;85.64
64139;BME280;50435;43.700;-79.318;2023-09-08T06:18:05;99748.32;;;16.13;85.67
64139;BME280;50435;43.700;-79.318;2023-09-08T06:20:32;99748.64;;;16.31;85.48
64139;BME280;50435;43.700;-79.318;2023-09-08T06:23:00;99750.13;;;16.29;85.57
64139;BME280;50435;43.700;-79.318;2023-09-08T06:25:28;99750.11;;;16.47;85.60
64139;BME280;50435;43.700;-79.318;2023-09-08T06:27:55;99753.61;;;16.22;85.50
64139;BME280;50435;43.700;-79.318;2023-09-08T06:30:23;99754.98;;;16.23;85.43
64139;BME280;50435;43.700;-79.318;2023-09-08T06:32:50;99760.79;;;15.97;85.58
64139;BME280;50435;43.700;-79.318;2023-09-08T06:35:18;99758.26;;;16.38;85.54
64139;BME280;50435;43.700;-79.318;2023-09-08T06:37:45;99758.00;;;15.43;85.77
64139;BME280;50435;43.700;-79.318;2023-09-08T06:40:13;99757.38;;;16.11;85.60
64139;BME280;50435;43.700;-79.318;2023-09-08T06:42:40;99746.53;;;15.85;85.62
64139;BME280;50435;43.700;-79.318;2023-09-08T06:45:09;99745.16;;;16.28;85.51
64139;BME280;50435;43.700;-79.318;2023-09-08T06:47:36;99745.58;;;16.04;85.49
64139;BME280;50435;43.700;-79.318;2023-09-08T06:50:04;99744.08;;;16.25;85.46
64139;BME280;50435;43.700;-79.318;2023-09-08T06:52:32;99738.53;;;16.21;85.52
64139;BME280;50435;43.700;-79.318;2023-09-08T06:55:00;99742.98;;;16.21;85.38
64139;BME280;50435;43.700;-79.318;2023-09-08T06:57:27;99746.73;;;15.93;85.41
64139;BME280;50435;43.700;-79.318;2023-09-08T06:59:54;99746.09;;;15.91;85.39
64139;BME280;50435;43.700;-79.318;2023-09-08T07:02:22;99749.89;;;16.09;85.37
64139;BME280;50435;43.700;-79.318;2023-09-08T07:04:49;99756.24;;;15.87;85.40
64139;BME280;50435;43.700;-79.318;2023-09-08T07:07:17;99759.95;;;15.84;85.47
64139;BME280;50435;43.700;-79.318;2023-09-08T07:09:45;99762.92;;;15.34;85.28
64139;BME280;50435;43.700;-79.318;2023-09-08T07:12:12;99767.41;;;15.77;85.12
64139;BME280;50435;43.700;-79.318;2023-09-08T07:14:40;99767.93;;;15.76;85.42
64139;BME280;50435;43.700;-79.318;2023-09-08T07:17:07;99769.39;;;15.93;85.28
64139;BME280;50435;43.700;-79.318;2023-09-08T07:19:35;99771.01;;;15.91;85.17
64139;BME280;50435;43.700;-79.318;2023-09-08T07:22:02;99770.39;;;15.90;85.11
64139;BME280;50435;43.700;-79.318;2023-09-08T07:24:30;99781.98;;;15.87;85.01
64139;BME280;50435;43.700;-79.318;2023-09-08T07:26:58;99786.12;;;15.61;84.99
64139;BME280;50435;43.700;-79.318;2023-09-08T07:29:25;99787.52;;;15.58;84.91
64139;BME280;50435;43.700;-79.318;2023-09-08T07:31:53;99793.06;;;15.78;84.85
64139;BME280;50435;43.700;-79.318;2023-09-08T07:34:21;99793.49;;;15.77;84.77
64139;BME280;50435;43.700;-79.318;2023-09-08T07:36:48;99799.43;;;15.72;84.70
64139;BME280;50435;43.700;-79.318;2023-09-08T07:39:16;99801.82;;;15.71;84.69
64139;BME280;50435;43.700;-79.318;2023-09-08T07:41:43;99797.35;;;14.96;84.37
64139;BME280;50435;43.700;-79.318;2023-09-08T07:44:12;99794.32;;;15.44;84.42
64139;BME280;50435;43.700;-79.318;2023-09-08T07:46:40;99802.67;;;15.17;84.34
64139;BME280;50435;43.700;-79.318;2023-09-08T07:49:08;99801.17;;;15.60;84.05
64139;BME280;50435;43.700;-79.318;2023-09-08T07:51:35;99807.97;;;15.57;84.04
64139;BME280;50435;43.700;-79.318;2023-09-08T07:54:04;99807.14;;;15.56;84.10
64139;BME280;50435;43.700;-79.318;2023-09-08T07:56:32;99810.37;;;15.49;84.40
64139;BME280;50435;43.700;-79.318;2023-09-08T07:59:00;99810.05;;;15.27;84.31
64139;BME280;50435;43.700;-79.318;2023-09-08T08:01:27;99808.02;;;15.46;84.20
64139;BME280;50435;43.700;-79.318;2023-09-08T08:03:55;99812.84;;;15.46;84.30
64139;BME280;50435;43.700;-79.318;2023-09-08T08:06:22;99809.94;;;15.43;84.24
64139;BME280;50435;43.700;-79.318;2023-09-08T08:08:50;99818.94;;;15.41;84.16
64139;BME280;50435;43.700;-79.318;2023-09-08T08:11:17;99828.21;;;15.40;84.07
64139;BME280;50435;43.700;-79.318;2023-09-08T08:13:46;99822.43;;;15.38;84.25
64139;BME280;50435;43.700;-79.318;2023-09-08T08:16:13;99825.66;;;15.37;84.20
64139;BME280;50435;43.700;-79.318;2023-09-08T08:18:41;99825.29;;;14.92;84.27
64139;BME280;50435;43.700;-79.318;2023-09-08T08:21:08;99831.65;;;15.35;84.35
64139;BME280;50435;43.700;-79.318;2023-09-08T08:23:36;99840.32;;;15.30;84.37
64139;BME280;50435;43.700;-79.318;2023-09-08T08:26:03;99843.42;;;15.29;84.19
64139;BME280;50435;43.700;-79.318;2023-09-08T08:28:31;99845.93;;;15.25;84.27
64139;BME280;50435;43.700;-79.318;2023-09-08T08:30:58;99844.98;;;15.25;84.15
64139;BME280;50435;43.700;-79.318;2023-09-08T08:33:26;99840.56;;;15.24;84.32
64139;BME280;50435;43.700;-79.318;2023-09-08T08:35:54;99841.81;;;15.25;84.29
64139;BME280;50435;43.700;-79.318;2023-09-08T08:38:21;99840.32;;;15.21;84.22
64139;BME280;50435;43.700;-79.318;2023-09-08T08:40:48;99849.52;;;14.72;84.27
64139;BME280;50435;43.700;-79.318;2023-09-08T08:43:16;99851.50;;;15.17;84.24
64139;BME280;50435;43.700;-79.318;2023-09-08T08:45:44;99852.95;;;14.72;83.98
64139;BME280;50435;43.700;-79.318;2023-09-08T08:48:14;99854.79;;;15.15;84.12
64139;BME280;50435;43.700;-79.318;2023-09-08T08:50:43;99852.94;;;14.19;84.16
64139;BME280;50435;43.700;-79.318;2023-09-08T08:53:11;99854.95;;;15.57;84.22
64139;BME280;50435;43.700;-79.318;2023-09-08T08:55:39;99856.28;;;15.35;84.09
64139;BME280;50435;43.700;-79.318;2023-09-08T08:58:08;99853.75;;;15.02;83.93
64139;BME280;50435;43.700;-79.318;2023-09-08T09:00:36;99858.41;;;15.01;83.89
64139;BME280;50435;43.700;-79.318;2023-09-08T09:03:05;99858.71;;;14.96;83.84
64139;BME280;50435;43.700;-79.318;2023-09-08T09:05:34;99861.73;;;15.23;83.96
64139;BME280;50435;43.700;-79.318;2023-09-08T09:08:05;99862.28;;;14.94;83.92
64139;BME280;50435;43.700;-79.318;2023-09-08T09:10:33;99861.24;;;15.39;83.86
64139;BME280;50435;43.700;-79.318;2023-09-08T09:13:01;99863.19;;;15.14;83.99
64139;BME280;50435;43.700;-79.318;2023-09-08T09:15:29;99860.69;;;15.34;84.00
64139;BME280;50435;43.700;-79.318;2023-09-08T09:18:05;99857.38;;;14.83;83.86
64139;BME280;50435;43.700;-79.318;2023-09-08T09:20:33;99865.83;;;15.04;83.75
64139;BME280;50435;43.700;-79.318;2023-09-08T09:23:01;99864.14;;;14.74;83.97
64139;BME280;50435;43.700;-79.318;2023-09-08T09:25:30;99862.78;;;14.70;83.81
64139;BME280;50435;43.700;-79.318;2023-09-08T09:27:59;99867.89;;;14.71;83.88
64139;BME280;50435;43.700;-79.318;2023-09-08T09:30:28;99877.70;;;15.17;84.03
64139;BME280;50435;43.700;-79.318;2023-09-08T09:33:12;99883.41;;;15.16;83.90
64139;BME280;50435;43.700;-79.318;2023-09-08T09:35:41;99885.46;;;14.64;83.88
64139;BME280;50435;43.700;-79.318;2023-09-08T09:38:09;99883.55;;;14.88;84.08
64139;BME280;50435;43.700;-79.318;2023-09-08T09:40:37;99889.56;;;15.08;84.18
64139;BME280;50435;43.700;-79.318;2023-09-08T09:43:06;99894.42;;;15.04;84.29
64139;BME280;50435;43.700;-79.318;2023-09-08T09:45:36;99899.25;;;15.02;84.25
64139;BME280;50435;43.700;-79.318;2023-09-08T09:48:05;99902.61;;;14.77;84.27
64139;BME280;50435;43.700;-79.318;2023-09-08T09:50:35;99908.12;;;14.97;84.35
64139;BME280;50435;43.700;-79.318;2023-09-08T09:53:08;99907.58;;;14.95;84.35
64139;BME280;50435;43.700;-79.318;2023-09-08T09:55:37;99912.16;;;14.91;84.53
64139;BME280;50435;43.700;-79.318;2023-09-08T09:58:05;99920.70;;;14.91;84.53
64139;BME280;50435;43.700;-79.318;2023-09-08T10:00:34;99926.93;;;14.66;84.68
64139;BME280;50435;43.700;-79.318;2023-09-08T10:03:01;99922.80;;;14.88;84.61
64139;BME280;50435;43.700;-79.318;2023-09-08T10:05:30;99922.52;;;14.36;84.72
64139;BME280;50435;43.700;-79.318;2023-09-08T10:07:58;99924.77;;;14.86;84.72
64139;BME280;50435;43.700;-79.318;2023-09-08T10:10:27;99928.09;;;14.83;84.82
64139;BME280;50435;43.700;-79.318;2023-09-08T10:12:57;99929.50;;;14.81;84.87
64139;BME280;50435;43.700;-79.318;2023-09-08T10:15:30;99936.92;;;14.81;84.84
64139;BME280;50435;43.700;-79.318;2023-09-08T10:17:58;99935.54;;;14.78;84.86
64139;BME280;50435;43.700;-79.318;2023-09-08T10:20:27;99934.34;;;14.77;84.97
64139;BME280;50435;43.700;-79.318;2023-09-08T10:23:00;99935.43;;;14.27;84.80
64139;BME280;50435;43.700;-79.318;2023-09-08T10:25:34;99942.71;;;14.74;84.76
64139;BME280;50435;43.700;-79.318;2023-09-08T10:28:02;99947.15;;;14.48;84.95
64139;BME280;50435;43.700;-79.318;2023-09-08T10:30:31;99948.42;;;14.70;84.96
64139;BME280;50435;43.700;-79.318;2023-09-08T10:32:59;99951.54;;;14.70;85.04
64139;BME280;50435;43.700;-79.318;2023-09-08T10:35:29;99958.75;;;14.67;85.08
64139;BME280;50435;43.700;-79.318;2023-09-08T10:38:22;99959.95;;;14.66;84.91
64139;BME280;50435;43.700;-79.318;2023-09-08T10:40:49;99961.07;;;14.16;85.00
64139;BME280;50435;43.700;-79.318;2023-09-08T10:43:18;99962.16;;;14.61;84.97
64139;BME280;50435;43.700;-79.318;2023-09-08T10:45:46;99962.75;;;14.10;84.94
64139;BME280;50435;43.700;-79.318;2023-09-08T10:48:14;99966.20;;;14.57;84.90
64139;BME280;50435;43.700;-79.318;2023-09-08T10:50:42;99967.06;;;13.60;84.97
64139;BME280;50435;43.700;-79.318;2023-09-08T10:53:14;99972.58;;;14.30;85.09
64139;BME280;50435;43.700;-79.318;2023-09-08T10:55:43;99974.56;;;13.78;85.01
64139;BME280;50435;43.700;-79.318;2023-09-08T10:58:11;99980.46;;;14.50;84.91
64139;BME280;50435;43.700;-79.318;2023-09-08T11:00:48;99987.34;;;14.47;85.00
64139;BME280;50435;43.700;-79.318;2023-09-08T11:03:26;100001.15;;;14.44;84.93
64139;BME280;50435;43.700;-79.318;2023-09-08T11:05:56;100007.25;;;14.40;85.04
64139;BME280;50435;43.700;-79.318;2023-09-08T11:08:25;100009.05;;;14.39;84.94
64139;BME280;50435;43.700;-79.318;2023-09-08T11:10:52;100019.85;;;14.16;84.93
64139;BME280;50435;43.700;-79.318;2023-09-08T11:13:20;100027.96;;;14.37;85.01
64139;BME280;50435;43.700;-79.318;2023-09-08T11:15:51;100027.14;;;14.11;84.86
64139;BME280;50435;43.700;-79.318;2023-09-08T11:18:26;100033.58;;;14.32;84.76
64139;BME280;50435;43.700;-79.318;2023-09-08T11:20:54;100037.84;;;14.07;84.83
64139;BME280;50435;43.700;-79.318;2023-09-08T11:23:21;100043.79;;;14.27;84.80
64139;BME280;50435;43.700;-79.318;2023-09-08T11:25:49;100043.54;;;14.29;84.76
64139;BME280;50435;43.700;-79.318;2023-09-08T11:28:17;100044.55;;;14.50;84.72
64139;BME280;50435;43.700;-79.318;2023-09-08T11:30:47;100049.70;;;13.79;84.88
64139;BME280;50435;43.700;-79.318;2023-09-08T11:33:14;100053.52;;;14.29;84.86
64139;BME280;50435;43.700;-79.318;2023-09-08T11:35:44;100060.58;;;13.34;84.89
64139;BME280;50435;43.700;-79.318;2023-09-08T11:38:12;100062.73;;;14.26;84.97
64139;BME280;50435;43.700;-79.318;2023-09-08T11:40:40;100065.38;;;14.28;85.10
64139;BME280;50435;43.700;-79.318;2023-09-08T11:43:08;100070.81;;;14.50;85.03
64139;BME280;50435;43.700;-79.318;2023-09-08T11:45:36;100075.09;;;14.49;85.05
64139;BME280;50435;43.700;-79.318;2023-09-08T11:48:04;100078.25;;;14.06;85.11
64139;BME280;50435;43.700;-79.318;2023-09-08T11:50:31;100080.33;;;14.26;85.17
64139;BME280;50435;43.700;-79.318;2023-09-08T11:52:59;100083.94;;;14.27;85.11
64139;BME280;50435;43.700;-79.318;2023-09-08T11:55:27;100093.67;;;14.27;85.01
64139;BME280;50435;43.700;-79.318;2023-09-08T11:57:55;100096.35;;;14.27;85.10
64139;BME280;50435;43.700;-79.318;2023-09-08T12:00:23;100104.84;;;14.29;85.08
64139;BME280;50435;43.700;-79.318;2023-09-08T12:02:52;100103.35;;;13.80;84.96
64139;BME280;50435;43.700;-79.318;2023-09-08T12:05:22;100105.74;;;14.28;85.03
64139;BME280;50435;43.700;-79.318;2023-09-08T12:07:51;100114.04;;;14.28;85.09
64139;BME280;50435;43.700;-79.318;2023-09-08T12:10:18;100122.52;;;14.29;84.87
64139;BME280;50435;43.700;-79.318;2023-09-08T12:12:47;100125.51;;;14.27;84.89
64139;BME280;50435;43.700;-79.318;2023-09-08T12:15:32;100130.88;;;14.29;84.71
64139;BME280;50435;43.700;-79.318;2023-09-08T12:18:00;100135.72;;;14.28;84.79
64139;BME280;50435;43.700;-79.318;2023-09-08T12:20:29;100135.25;;;14.28;84.80
64139;BME280;50435;43.700;-79.318;2023-09-08T12:23:01;100140.19;;;14.29;84.91
64139;BME280;50435;43.700;-79.318;2023-09-08T12:25:29;100142.06;;;14.30;84.78
64139;BME280;50435;43.700;-79.318;2023-09-08T12:27:56;100144.35;;;14.31;84.84
64139;BME280;50435;43.700;-79.318;2023-09-08T12:30:25;100148.40;;;14.31;84.89
64139;BME280;50435;43.700;-79.318;2023-09-08T12:32:53;100145.39;;;14.08;84.87
64139;BME280;50435;43.700;-79.318;2023-09-08T12:35:22;100146.73;;;14.30;84.91
64139;BME280;50435;43.700;-79.318;2023-09-08T12:37:54;100152.89;;;14.11;85.00
64139;BME280;50435;43.700;-79.318;2023-09-08T12:40:24;100156.54;;;14.31;84.97
64139;BME280;50435;43.700;-79.318;2023-09-08T12:42:51;100162.49;;;14.31;85.00